sensor_id;sensor_type;location;lat;lon;timestamp;pressure;altitude;pressure_sealevel;temperature;humidity
79686;BME280;69153;47.918;11.428;2023-08-06T00:01:44;94561.88;;;16.98;65.04
79686;BME280;69153;47.918;11.428;2023-08-06T00:04:10;94558.19;;;16.96;64.12
79686;BME280;69153;47.918;11.428;2023-08-06T00:06:35;94552.38;;;16.97;64.72
79686;BME280;69153;47.918;11.428;2023-08-06T00:09:01;94553.56;;;17.22;64.18
79686;BME280;69153;47.918;11.428;2023-08-06T00:11:26;94552.19;;;17.32;63.86
79686;BME280;69153;47.918;11.428;2023-08-06T00:13:51;94555.66;;;17.44;63.73
79686;BME280;69153;47.918;11.428;2023-08-06T00:16:17;94549.91;;;17.51;63.49
79686;BME280;69153;47.918;11.428;2023-08-06T00:18:42;94543.81;;;17.56;62.81
79686;BME280;69153;47.918;11.428;2023-08-06T00:21:08;94549.66;;;17.55;62.95
79686;BME280;69153;47.918;11.428;2023-08-06T00:23:33;94551.97;;;17.67;62.54
79686;BME280;69153;47.918;11.428;2023-08-06T00:25:59;94547.13;;;17.71;61.71
79686;BME280;69153;47.918;11.428;2023-08-06T00:28:24;94552.00;;;17.73;61.81
79686;BME280;69153;47.918;11.428;2023-08-06T00:30:56;94545.19;;;17.72;61.41
79686;BME280;69153;47.918;11.428;2023-08-06T00:33:22;94541.28;;;17.73;61.14
79686;BME280;69153;47.918;11.428;2023-08-06T00:35:48;94544.66;;;17.68;60.91
79686;BME280;69153;47.918;11.428;2023-08-06T00:38:13;94545.19;;;17.72;60.61
79686;BME280;69153;47.918;11.428;2023-08-06T00:40:39;94534.19;;;17.70;60.73
79686;BME280;69153;47.918;11.428;2023-08-06T00:43:04;94553.22;;;17.72;61.06
79686;BME280;69153;47.918;11.428;2023-08-06T00:45:34;94548.81;;;17.69;61.02
79686;BME280;69153;47.918;11.428;2023-08-06T00:48:02;94549.53;;;17.64;61.09
79686;BME280;69153;47.918;11.428;2023-08-06T00:50:28;94558.47;;;17.61;60.72
79686;BME280;69153;47.918;11.428;2023-08-06T00:52:54;94550.53;;;17.40;61.52
79686;BME280;69153;47.918;11.428;2023-08-06T00:55:20;94549.16;;;17.19;61.89
79686;BME280;69153;47.918;11.428;2023-08-06T00:57:46;94541.59;;;17.18;62.72
79686;BME280;69153;47.918;11.428;2023-08-06T01:00:12;94534.69;;;17.05;62.69
79686;BME280;69153;47.918;11.428;2023-08-06T01:02:38;94539.09;;;16.83;62.53
79686;BME280;69153;47.918;11.428;2023-08-06T01:05:03;94534.78;;;16.65;63.46
79686;BME280;69153;47.918;11.428;2023-08-06T01:10:21;94526.03;;;16.90;62.90
79686;BME280;69153;47.918;11.428;2023-08-06T01:13:05;94525.06;;;16.88;63.55
79686;BME280;69153;47.918;11.428;2023-08-06T01:15:37;94532.34;;;16.87;62.93
79686;BME280;69153;47.918;11.428;2023-08-06T01:18:04;94528.09;;;16.55;63.87
79686;BME280;69153;47.918;11.428;2023-08-06T01:20:31;94517.53;;;16.66;63.86
79686;BME280;69153;47.918;11.428;2023-08-06T01:22:56;94519.66;;;16.62;64.22
79686;BME280;69153;47.918;11.428;2023-08-06T01:25:30;94522.47;;;16.53;64.27
79686;BME280;69153;47.918;11.428;2023-08-06T01:28:06;94527.72;;;16.41;64.69
79686;BME280;69153;47.918;11.428;2023-08-06T01:30:37;94526.91;;;15.75;66.15
79686;BME280;69153;47.918;11.428;2023-08-06T01:33:04;94527.78;;;15.86;66.05
79686;BME280;69153;47.918;11.428;2023-08-06T01:35:32;94524.59;;;16.02;65.76
79686;BME280;69153;47.918;11.428;2023-08-06T01:38:01;94522.66;;;16.23;65.12
79686;BME280;69153;47.918;11.428;2023-08-06T01:40:27;94522.94;;;16.05;65.42
79686;BME280;69153;47.918;11.428;2023-08-06T01:42:53;94523.97;;;15.72;66.37
79686;BME280;69153;47.918;11.428;2023-08-06T01:45:19;94522.38;;;15.81;66.98
79686;BME280;69153;47.918;11.428;2023-08-06T01:47:44;94513.56;;;15.75;67.00
79686;BME280;69153;47.918;11.428;2023-08-06T01:50:10;94512.13;;;15.59;67.45
79686;BME280;69153;47.918;11.428;2023-08-06T01:52:35;94514.38;;;15.31;68.41
79686;BME280;69153;47.918;11.428;2023-08-06T01:55:00;94515.44;;;15.54;67.90
79686;BME280;69153;47.918;11.428;2023-08-06T01:57:26;94514.97;;;15.70;67.30
79686;BME280;69153;47.918;11.428;2023-08-06T01:59:51;94515.72;;;15.91;66.56
79686;BME280;69153;47.918;11.428;2023-08-06T02:02:17;94511.31;;;16.08;65.65
79686;BME280;69153;47.918;11.428;2023-08-06T02:04:42;94510.91;;;16.15;65.21
79686;BME280;69153;47.918;11.428;2023-08-06T02:07:08;94510.72;;;16.19;65.52
79686;BME280;69153;47.918;11.428;2023-08-06T02:09:33;94518.06;;;16.03;65.51
79686;BME280;69153;47.918;11.428;2023-08-06T02:12:00;94509.56;;;16.25;65.03
79686;BME280;69153;47.918;11.428;2023-08-06T02:14:26;94510.91;;;16.35;65.09
79686;BME280;69153;47.918;11.428;2023-08-06T02:16:51;94509.53;;;16.46;64.42
79686;BME280;69153;47.918;11.428;2023-08-06T02:19:17;94502.25;;;16.46;64.55
79686;BME280;69153;47.918;11.428;2023-08-06T02:21:42;94505.22;;;16.28;64.87
79686;BME280;69153;47.918;11.428;2023-08-06T02:24:07;94493.00;;;16.21;65.21
79686;BME280;69153;47.918;11.428;2023-08-06T02:26:33;94488.66;;;16.03;65.67
79686;BME280;69153;47.918;11.428;2023-08-06T02:28:58;94485.31;;;16.08;65.52
79686;BME280;69153;47.918;11.428;2023-08-06T02:31:24;94474.69;;;16.14;65.06
79686;BME280;69153;47.918;11.428;2023-08-06T02:33:49;94466.66;;;16.14;65.37
79686;BME280;69153;47.918;11.428;2023-08-06T02:36:15;94465.25;;;16.19;65.40
79686;BME280;69153;47.918;11.428;2023-08-06T02:38:40;94463.94;;;16.08;65.59
79686;BME280;69153;47.918;11.428;2023-08-06T02:41:06;94461.84;;;16.18;65.56
79686;BME280;69153;47.918;11.428;2023-08-06T02:43:31;94448.75;;;16.20;65.54
79686;BME280;69153;47.918;11.428;2023-08-06T02:45:58;94429.44;;;16.11;65.73
79686;BME280;69153;47.918;11.428;2023-08-06T02:48:23;94441.56;;;16.06;66.11
79686;BME280;69153;47.918;11.428;2023-08-06T02:50:49;94443.72;;;16.28;65.56
79686;BME280;69153;47.918;11.428;2023-08-06T02:53:14;94442.16;;;16.41;65.08
79686;BME280;69153;47.918;11.428;2023-08-06T02:55:45;94436.34;;;16.43;65.03
79686;BME280;69153;47.918;11.428;2023-08-06T02:58:13;94446.00;;;16.35;65.64
79686;BME280;69153;47.918;11.428;2023-08-06T03:00:39;94440.16;;;16.36;65.43
79686;BME280;69153;47.918;11.428;2023-08-06T03:03:04;94434.94;;;16.22;65.69
79686;BME280;69153;47.918;11.428;2023-08-06T03:05:29;94433.75;;;16.02;66.11
79686;BME280;69153;47.918;11.428;2023-08-06T03:07:55;94439.25;;;15.93;66.21
79686;BME280;69153;47.918;11.428;2023-08-06T03:10:20;94442.59;;;15.68;66.97
79686;BME280;69153;47.918;11.428;2023-08-06T03:12:46;94445.31;;;15.73;66.84
79686;BME280;69153;47.918;11.428;2023-08-06T03:15:11;94445.53;;;15.70;66.89
79686;BME280;69153;47.918;11.428;2023-08-06T03:17:37;94444.72;;;15.64;66.41
79686;BME280;69153;47.918;11.428;2023-08-06T03:20:02;94437.16;;;15.62;66.51
79686;BME280;69153;47.918;11.428;2023-08-06T03:22:28;94440.88;;;15.50;66.91
79686;BME280;69153;47.918;11.428;2023-08-06T03:24:53;94434.03;;;15.64;66.78
79686;BME280;69153;47.918;11.428;2023-08-06T03:27:19;94441.50;;;15.60;66.40
79686;BME280;69153;47.918;11.428;2023-08-06T03:29:44;94443.13;;;15.37;66.94
79686;BME280;69153;47.918;11.428;2023-08-06T03:32:10;94435.16;;;15.22;67.93
79686;BME280;69153;47.918;11.428;2023-08-06T03:34:35;94434.00;;;15.09;68.07
79686;BME280;69153;47.918;11.428;2023-08-06T03:37:01;94431.97;;;15.18;67.62
79686;BME280;69153;47.918;11.428;2023-08-06T03:39:26;94440.38;;;14.96;67.65
79686;BME280;69153;47.918;11.428;2023-08-06T03:41:52;94445.09;;;14.72;68.70
79686;BME280;69153;47.918;11.428;2023-08-06T03:44:17;94445.53;;;14.71;68.61
79686;BME280;69153;47.918;11.428;2023-08-06T03:46:42;94444.91;;;14.46;69.23
79686;BME280;69153;47.918;11.428;2023-08-06T03:49:08;94447.19;;;14.83;68.32
79686;BME280;69153;47.918;11.428;2023-08-06T03:51:33;94447.91;;;14.83;67.96
79686;BME280;69153;47.918;11.428;2023-08-06T03:53:59;94441.19;;;15.02;67.53
79686;BME280;69153;47.918;11.428;2023-08-06T03:56:24;94435.84;;;15.02;67.56
79686;BME280;69153;47.918;11.428;2023-08-06T03:58:49;94432.09;;;14.94;67.66
79686;BME280;69153;47.918;11.428;2023-08-06T04:01:16;94433.72;;;15.07;67.38
79686;BME280;69153;47.918;11.428;2023-08-06T04:03:41;94440.53;;;15.08;66.89
79686;BME280;69153;47.918;11.428;2023-08-06T04:06:07;94422.81;;;14.90;67.47
79686;BME280;69153;47.918;11.428;2023-08-06T04:08:32;94434.88;;;14.85;67.61
79686;BME280;69153;47.918;11.428;2023-08-06T04:10:58;94430.00;;;14.84;67.57
79686;BME280;69153;47.918;11.428;2023-08-06T04:13:23;94433.03;;;14.77;67.89
79686;BME280;69153;47.918;11.428;2023-08-06T04:15:49;94433.31;;;14.79;67.84
79686;BME280;69153;47.918;11.428;2023-08-06T04:18:14;94431.69;;;14.67;68.50
79686;BME280;69153;47.918;11.428;2023-08-06T04:20:44;94442.34;;;14.67;67.83
79686;BME280;69153;47.918;11.428;2023-08-06T04:23:10;94426.53;;;14.63;67.54
79686;BME280;69153;47.918;11.428;2023-08-06T04:25:35;94420.34;;;14.72;67.54
79686;BME280;69153;47.918;11.428;2023-08-06T04:28:01;94411.25;;;14.78;66.90
79686;BME280;69153;47.918;11.428;2023-08-06T04:30:26;94417.03;;;14.91;66.41
79686;BME280;69153;47.918;11.428;2023-08-06T04:32:52;94419.44;;;15.10;65.49
79686;BME280;69153;47.918;11.428;2023-08-06T04:35:17;94432.50;;;15.22;64.45
79686;BME280;69153;47.918;11.428;2023-08-06T04:37:42;94428.47;;;15.12;65.15
79686;BME280;69153;47.918;11.428;2023-08-06T04:40:08;94425.34;;;15.14;65.03
79686;BME280;69153;47.918;11.428;2023-08-06T04:42:34;94425.56;;;14.95;65.62
79686;BME280;69153;47.918;11.428;2023-08-06T04:45:01;94422.59;;;15.08;66.22
79686;BME280;69153;47.918;11.428;2023-08-06T04:47:26;94424.22;;;15.20;65.61
79686;BME280;69153;47.918;11.428;2023-08-06T04:49:52;94428.38;;;15.07;65.74
79686;BME280;69153;47.918;11.428;2023-08-06T04:52:18;94420.94;;;15.11;65.57
79686;BME280;69153;47.918;11.428;2023-08-06T04:54:43;94417.53;;;15.10;65.97
79686;BME280;69153;47.918;11.428;2023-08-06T04:57:09;94421.31;;;15.04;65.75
79686;BME280;69153;47.918;11.428;2023-08-06T04:59:35;94417.81;;;15.32;64.98
79686;BME280;69153;47.918;11.428;2023-08-06T05:02:00;94429.03;;;15.16;65.17
79686;BME280;69153;47.918;11.428;2023-08-06T05:04:26;94418.50;;;15.27;64.89
79686;BME280;69153;47.918;11.428;2023-08-06T05:06:52;94429.44;;;15.29;64.63
79686;BME280;69153;47.918;11.428;2023-08-06T05:09:17;94422.63;;;15.28;64.54
79686;BME280;69153;47.918;11.428;2023-08-06T05:11:42;94431.50;;;15.55;63.77
79686;BME280;69153;47.918;11.428;2023-08-06T05:14:08;94428.16;;;15.45;63.41
79686;BME280;69153;47.918;11.428;2023-08-06T05:16:33;94438.59;;;15.58;63.36
79686;BME280;69153;47.918;11.428;2023-08-06T05:18:59;94425.94;;;15.58;63.18
79686;BME280;69153;47.918;11.428;2023-08-06T05:21:24;94432.75;;;15.59;62.93
79686;BME280;69153;47.918;11.428;2023-08-06T05:23:50;94435.50;;;15.65;62.82
79686;BME280;69153;47.918;11.428;2023-08-06T05:26:15;94431.94;;;15.53;63.34
79686;BME280;69153;47.918;11.428;2023-08-06T05:28:44;94437.84;;;15.78;62.02
79686;BME280;69153;47.918;11.428;2023-08-06T05:31:10;94438.44;;;15.87;61.82
79686;BME280;69153;47.918;11.428;2023-08-06T05:33:35;94442.22;;;16.01;61.43
79686;BME280;69153;47.918;11.428;2023-08-06T05:36:01;94434.69;;;15.99;61.34
79686;BME280;69153;47.918;11.428;2023-08-06T05:38:26;94431.63;;;15.66;61.10
79686;BME280;69153;47.918;11.428;2023-08-06T05:40:52;94421.59;;;15.61;60.65
79686;BME280;69153;47.918;11.428;2023-08-06T05:43:17;94430.88;;;15.86;60.94
79686;BME280;69153;47.918;11.428;2023-08-06T05:45:46;94417.22;;;15.78;59.84
79686;BME280;69153;47.918;11.428;2023-08-06T05:48:12;94420.81;;;15.55;60.71
79686;BME280;69153;47.918;11.428;2023-08-06T05:50:37;94423.16;;;15.67;61.06
79686;BME280;69153;47.918;11.428;2023-08-06T05:53:03;94412.66;;;15.84;60.70
79686;BME280;69153;47.918;11.428;2023-08-06T05:55:28;94421.66;;;15.87;60.29
79686;BME280;69153;47.918;11.428;2023-08-06T05:57:54;94414.88;;;16.12;59.74
79686;BME280;69153;47.918;11.428;2023-08-06T06:00:21;94416.03;;;16.05;59.89
79686;BME280;69153;47.918;11.428;2023-08-06T06:02:47;94409.91;;;15.99;59.54
79686;BME280;69153;47.918;11.428;2023-08-06T06:05:12;94399.13;;;16.14;59.04
79686;BME280;69153;47.918;11.428;2023-08-06T06:07:38;94416.59;;;16.09;59.02
79686;BME280;69153;47.918;11.428;2023-08-06T06:10:03;94421.94;;;16.09;58.62
79686;BME280;69153;47.918;11.428;2023-08-06T06:12:29;94403.78;;;16.19;59.28
79686;BME280;69153;47.918;11.428;2023-08-06T06:14:54;94413.75;;;16.44;58.64
79686;BME280;69153;47.918;11.428;2023-08-06T06:17:20;94406.47;;;16.19;57.91
79686;BME280;69153;47.918;11.428;2023-08-06T06:19:45;94418.91;;;16.22;58.19
79686;BME280;69153;47.918;11.428;2023-08-06T06:22:12;94419.66;;;16.54;57.93
79686;BME280;69153;47.918;11.428;2023-08-06T06:24:37;94418.16;;;16.73;57.57
79686;BME280;69153;47.918;11.428;2023-08-06T06:27:03;94418.44;;;16.55;57.59
79686;BME280;69153;47.918;11.428;2023-08-06T06:29:28;94418.25;;;16.32;58.51
79686;BME280;69153;47.918;11.428;2023-08-06T06:31:54;94425.59;;;16.63;57.59
79686;BME280;69153;47.918;11.428;2023-08-06T06:34:19;94424.91;;;16.68;56.83
79686;BME280;69153;47.918;11.428;2023-08-06T06:36:45;94423.91;;;16.40;57.87
79686;BME280;69153;47.918;11.428;2023-08-06T06:39:10;94417.34;;;16.15;57.81
79686;BME280;69153;47.918;11.428;2023-08-06T06:41:35;94414.22;;;16.17;58.89
79686;BME280;69153;47.918;11.428;2023-08-06T06:44:01;94426.19;;;16.21;58.24
79686;BME280;69153;47.918;11.428;2023-08-06T06:46:26;94418.72;;;16.57;58.06
79686;BME280;69153;47.918;11.428;2023-08-06T06:48:52;94422.78;;;17.09;56.49
79686;BME280;69153;47.918;11.428;2023-08-06T06:51:17;94419.34;;;17.03;55.67
79686;BME280;69153;47.918;11.428;2023-08-06T06:53:43;94422.13;;;17.20;56.01
79686;BME280;69153;47.918;11.428;2023-08-06T06:56:08;94428.69;;;17.19;56.48
79686;BME280;69153;47.918;11.428;2023-08-06T06:58:34;94425.78;;;16.86;56.56
79686;BME280;69153;47.918;11.428;2023-08-06T07:00:59;94433.34;;;16.87;55.63
79686;BME280;69153;47.918;11.428;2023-08-06T07:03:25;94431.19;;;16.39;57.91
79686;BME280;69153;47.918;11.428;2023-08-06T07:05:51;94441.53;;;16.78;57.56
79686;BME280;69153;47.918;11.428;2023-08-06T07:08:16;94446.66;;;16.82;56.66
79686;BME280;69153;47.918;11.428;2023-08-06T07:10:42;94437.38;;;16.77;57.11
79686;BME280;69153;47.918;11.428;2023-08-06T07:13:09;94442.00;;;16.51;57.41
79686;BME280;69153;47.918;11.428;2023-08-06T07:15:34;94442.66;;;16.66;58.27
79686;BME280;69153;47.918;11.428;2023-08-06T07:18:01;94440.75;;;16.46;57.62
79686;BME280;69153;47.918;11.428;2023-08-06T07:20:26;94439.59;;;16.53;59.11
79686;BME280;69153;47.918;11.428;2023-08-06T07:22:54;94456.00;;;16.40;58.96
79686;BME280;69153;47.918;11.428;2023-08-06T07:25:19;94444.78;;;16.36;58.89
79686;BME280;69153;47.918;11.428;2023-08-06T07:27:45;94437.13;;;16.49;57.54
79686;BME280;69153;47.918;11.428;2023-08-06T07:30:10;94440.22;;;16.68;59.65
79686;BME280;69153;47.918;11.428;2023-08-06T07:32:36;94449.94;;;16.97;57.14
79686;BME280;69153;47.918;11.428;2023-08-06T07:35:02;94446.88;;;17.09;57.47
79686;BME280;69153;47.918;11.428;2023-08-06T07:37:28;94449.38;;;17.19;56.75
79686;BME280;69153;47.918;11.428;2023-08-06T07:39:57;94436.34;;;16.69;57.96
79686;BME280;69153;47.918;11.428;2023-08-06T07:42:22;94433.97;;;16.51;58.64
79686;BME280;69153;47.918;11.428;2023-08-06T07:44:58;94438.84;;;16.78;58.60
79686;BME280;69153;47.918;11.428;2023-08-06T07:47:24;94438.59;;;16.50;58.37
79686;BME280;69153;47.918;11.428;2023-08-06T07:49:49;94434.88;;;16.42;57.51
79686;BME280;69153;47.918;11.428;2023-08-06T07:52:15;94442.59;;;16.34;57.55
79686;BME280;69153;47.918;11.428;2023-08-06T07:54:40;94436.69;;;16.04;58.07
79686;BME280;69153;47.918;11.428;2023-08-06T07:57:06;94437.53;;;16.16;58.27
79686;BME280;69153;47.918;11.428;2023-08-06T07:59:31;94445.25;;;16.08;58.19
79686;BME280;69153;47.918;11.428;2023-08-06T08:01:57;94447.31;;;16.45;57.64
79686;BME280;69153;47.918;11.428;2023-08-06T08:04:23;94433.66;;;16.43;57.68
79686;BME280;69153;47.918;11.428;2023-08-06T08:06:49;94428.59;;;16.71;56.64
79686;BME280;69153;47.918;11.428;2023-08-06T08:09:14;94433.72;;;16.49;57.20
79686;BME280;69153;47.918;11.428;2023-08-06T08:11:40;94429.41;;;16.83;55.87
79686;BME280;69153;47.918;11.428;2023-08-06T08:14:06;94425.41;;;17.04;54.90
79686;BME280;69153;47.918;11.428;2023-08-06T08:16:32;94430.56;;;17.50;55.13
79686;BME280;69153;47.918;11.428;2023-08-06T08:18:57;94438.47;;;17.65;53.54
79686;BME280;69153;47.918;11.428;2023-08-06T08:21:22;94422.50;;;17.44;54.02
79686;BME280;69153;47.918;11.428;2023-08-06T08:23:49;94427.16;;;17.55;53.96
79686;BME280;69153;47.918;11.428;2023-08-06T08:26:15;94432.13;;;17.68;53.34
79686;BME280;69153;47.918;11.428;2023-08-06T08:28:40;94423.00;;;17.06;53.45
79686;BME280;69153;47.918;11.428;2023-08-06T08:31:09;94425.47;;;16.78;54.27
79686;BME280;69153;47.918;11.428;2023-08-06T08:33:35;94432.13;;;16.36;54.53
79686;BME280;69153;47.918;11.428;2023-08-06T08:36:00;94441.22;;;16.19;54.99
79686;BME280;69153;47.918;11.428;2023-08-06T08:38:26;94434.41;;;15.97;56.84
79686;BME280;69153;47.918;11.428;2023-08-06T08:40:53;94430.50;;;15.93;56.62
79686;BME280;69153;47.918;11.428;2023-08-06T08:43:23;94426.81;;;15.90;55.77
79686;BME280;69153;47.918;11.428;2023-08-06T08:45:53;94440.38;;;16.07;55.61
79686;BME280;69153;47.918;11.428;2023-08-06T08:48:27;94451.72;;;16.02;55.61
79686;BME280;69153;47.918;11.428;2023-08-06T08:50:53;94441.47;;;16.21;55.34
79686;BME280;69153;47.918;11.428;2023-08-06T08:53:21;94430.56;;;16.50;54.16
79686;BME280;69153;47.918;11.428;2023-08-06T08:55:49;94434.22;;;16.53;53.17
79686;BME280;69153;47.918;11.428;2023-08-06T08:58:14;94439.50;;;16.67;53.62
79686;BME280;69153;47.918;11.428;2023-08-06T09:00:41;94441.41;;;16.93;52.14
79686;BME280;69153;47.918;11.428;2023-08-06T09:03:07;94435.84;;;16.96;52.22
79686;BME280;69153;47.918;11.428;2023-08-06T09:05:33;94440.59;;;16.81;52.11
79686;BME280;69153;47.918;11.428;2023-08-06T09:08:03;94429.69;;;17.27;51.45
79686;BME280;69153;47.918;11.428;2023-08-06T09:10:29;94429.69;;;17.27;51.79
79686;BME280;69153;47.918;11.428;2023-08-06T09:12:56;94432.94;;;17.00;52.51
79686;BME280;69153;47.918;11.428;2023-08-06T09:15:25;94453.78;;;16.90;53.41
79686;BME280;69153;47.918;11.428;2023-08-06T09:17:55;94458.97;;;16.99;53.22
79686;BME280;69153;47.918;11.428;2023-08-06T09:20:20;94453.75;;;16.85;52.76
79686;BME280;69153;47.918;11.428;2023-08-06T09:22:46;94459.63;;;16.63;53.54
79686;BME280;69153;47.918;11.428;2023-08-06T09:25:24;94445.84;;;16.70;53.31
79686;BME280;69153;47.918;11.428;2023-08-06T09:27:51;94440.88;;;16.89;53.16
79686;BME280;69153;47.918;11.428;2023-08-06T09:30:31;94453.56;;;17.25;52.62
79686;BME280;69153;47.918;11.428;2023-08-06T09:32:57;94450.16;;;17.25;50.85
79686;BME280;69153;47.918;11.428;2023-08-06T09:35:22;94453.38;;;17.40;50.74
79686;BME280;69153;47.918;11.428;2023-08-06T09:37:48;94464.47;;;17.59;50.06
79686;BME280;69153;47.918;11.428;2023-08-06T09:40:31;94446.94;;;18.17;49.52
79686;BME280;69153;47.918;11.428;2023-08-06T09:42:58;94458.88;;;18.16;49.91
79686;BME280;69153;47.918;11.428;2023-08-06T09:45:32;94461.50;;;18.05;50.87
79686;BME280;69153;47.918;11.428;2023-08-06T09:48:05;94453.66;;;17.84;51.00
79686;BME280;69153;47.918;11.428;2023-08-06T09:50:33;94455.72;;;18.23;51.84
79686;BME280;69153;47.918;11.428;2023-08-06T09:53:00;94457.50;;;18.54;51.39
79686;BME280;69153;47.918;11.428;2023-08-06T09:55:26;94457.56;;;18.76;50.82
79686;BME280;69153;47.918;11.428;2023-08-06T09:57:52;94458.34;;;18.06;52.34
79686;BME280;69153;47.918;11.428;2023-08-06T10:00:19;94462.13;;;17.35;53.74
79686;BME280;69153;47.918;11.428;2023-08-06T10:02:48;94462.88;;;17.41;53.75
79686;BME280;69153;47.918;11.428;2023-08-06T10:05:15;94462.53;;;17.22;53.10
79686;BME280;69153;47.918;11.428;2023-08-06T10:07:43;94457.66;;;17.21;51.86
79686;BME280;69153;47.918;11.428;2023-08-06T10:10:09;94474.47;;;17.27;51.69
79686;BME280;69153;47.918;11.428;2023-08-06T10:12:48;94467.34;;;17.12;52.22
79686;BME280;69153;47.918;11.428;2023-08-06T10:15:17;94463.88;;;17.06;52.25
79686;BME280;69153;47.918;11.428;2023-08-06T10:17:47;94474.69;;;16.86;52.46
79686;BME280;69153;47.918;11.428;2023-08-06T10:20:13;94464.56;;;17.33;51.95
79686;BME280;69153;47.918;11.428;2023-08-06T10:22:42;94485.91;;;17.22;52.53
79686;BME280;69153;47.918;11.428;2023-08-06T10:25:09;94480.41;;;17.05;52.33
79686;BME280;69153;47.918;11.428;2023-08-06T10:27:39;94467.97;;;17.02;53.03
79686;BME280;69153;47.918;11.428;2023-08-06T10:30:24;94482.19;;;16.82;52.95
79686;BME280;69153;47.918;11.428;2023-08-06T10:32:52;94487.34;;;16.86;53.78
79686;BME280;69153;47.918;11.428;2023-08-06T10:38:10;94478.56;;;17.17;53.16
79686;BME280;69153;47.918;11.428;2023-08-06T10:40:40;94471.78;;;17.21;53.27
79686;BME280;69153;47.918;11.428;2023-08-06T10:43:06;94484.38;;;16.84;54.72
79686;BME280;69153;47.918;11.428;2023-08-06T10:45:35;94481.81;;;16.95;54.71
79686;BME280;69153;47.918;11.428;2023-08-06T10:48:01;94488.19;;;17.03;54.40
79686;BME280;69153;47.918;11.428;2023-08-06T10:50:26;94519.22;;;16.89;54.41
79686;BME280;69153;47.918;11.428;2023-08-06T10:52:53;94494.28;;;16.52;54.20
79686;BME280;69153;47.918;11.428;2023-08-06T10:55:29;94507.03;;;16.62;54.94
79686;BME280;69153;47.918;11.428;2023-08-06T10:57:55;94533.03;;;16.16;55.08
79686;BME280;69153;47.918;11.428;2023-08-06T11:00:22;94495.94;;;15.83;56.21
79686;BME280;69153;47.918;11.428;2023-08-06T11:02:52;94494.88;;;15.95;56.48
79686;BME280;69153;47.918;11.428;2023-08-06T11:05:18;94497.69;;;16.06;56.58
79686;BME280;69153;47.918;11.428;2023-08-06T11:07:43;94499.41;;;16.29;55.70
79686;BME280;69153;47.918;11.428;2023-08-06T11:10:11;94509.78;;;16.22;55.82
79686;BME280;69153;47.918;11.428;2023-08-06T11:12:37;94503.22;;;16.23;56.31
79686;BME280;69153;47.918;11.428;2023-08-06T11:15:04;94506.56;;;16.18;56.79
79686;BME280;69153;47.918;11.428;2023-08-06T11:17:32;94541.78;;;15.96;56.89
79686;BME280;69153;47.918;11.428;2023-08-06T11:20:03;94533.75;;;15.96;58.43
79686;BME280;69153;47.918;11.428;2023-08-06T11:22:29;94535.38;;;16.08;58.21
79686;BME280;69153;47.918;11.428;2023-08-06T11:24:55;94538.88;;;15.79;59.30
79686;BME280;69153;47.918;11.428;2023-08-06T11:27:20;94542.59;;;15.67;59.64
79686;BME280;69153;47.918;11.428;2023-08-06T11:29:46;94529.38;;;15.58;59.70
79686;BME280;69153;47.918;11.428;2023-08-06T11:32:11;94518.75;;;15.49;59.60
79686;BME280;69153;47.918;11.428;2023-08-06T11:34:38;94540.13;;;15.34;60.04
79686;BME280;69153;47.918;11.428;2023-08-06T11:37:05;94532.03;;;15.58;60.33
79686;BME280;69153;47.918;11.428;2023-08-06T11:39:38;94537.69;;;15.30;61.36
79686;BME280;69153;47.918;11.428;2023-08-06T11:42:05;94536.00;;;15.33;61.53
79686;BME280;69153;47.918;11.428;2023-08-06T11:44:34;94528.19;;;15.29;61.43
79686;BME280;69153;47.918;11.428;2023-08-06T11:47:02;94525.47;;;15.59;60.53
79686;BME280;69153;47.918;11.428;2023-08-06T11:52:20;94524.81;;;15.64;59.94
79686;BME280;69153;47.918;11.428;2023-08-06T11:55:06;94529.84;;;15.56;59.13
79686;BME280;69153;47.918;11.428;2023-08-06T11:57:34;94559.00;;;15.45;59.92
79686;BME280;69153;47.918;11.428;2023-08-06T12:00:08;94525.16;;;15.22;59.28
79686;BME280;69153;47.918;11.428;2023-08-06T12:02:35;94543.94;;;15.27;59.81
79686;BME280;69153;47.918;11.428;2023-08-06T12:05:14;94536.56;;;15.37;59.07
79686;BME280;69153;47.918;11.428;2023-08-06T12:07:42;94538.31;;;15.55;58.93
79686;BME280;69153;47.918;11.428;2023-08-06T12:10:09;94541.56;;;15.79;58.02
79686;BME280;69153;47.918;11.428;2023-08-06T12:12:35;94542.97;;;15.95;57.76
79686;BME280;69153;47.918;11.428;2023-08-06T12:15:01;94546.38;;;15.95;58.05
79686;BME280;69153;47.918;11.428;2023-08-06T12:17:27;94538.41;;;16.01;57.39
79686;BME280;69153;47.918;11.428;2023-08-06T12:19:53;94540.53;;;15.77;58.07
79686;BME280;69153;47.918;11.428;2023-08-06T12:22:18;94538.56;;;15.57;59.54
79686;BME280;69153;47.918;11.428;2023-08-06T12:24:46;94551.09;;;15.86;59.19
79686;BME280;69153;47.918;11.428;2023-08-06T12:27:11;94550.63;;;15.87;58.49
79686;BME280;69153;47.918;11.428;2023-08-06T12:29:40;94571.69;;;15.50;59.19
79686;BME280;69153;47.918;11.428;2023-08-06T12:32:07;94559.28;;;15.62;59.71
79686;BME280;69153;47.918;11.428;2023-08-06T12:34:32;94539.94;;;15.67;58.70
79686;BME280;69153;47.918;11.428;2023-08-06T12:36:57;94553.44;;;15.98;58.11
79686;BME280;69153;47.918;11.428;2023-08-06T12:39:23;94531.75;;;15.91;57.61
79686;BME280;69153;47.918;11.428;2023-08-06T12:41:49;94541.34;;;15.83;57.70
79686;BME280;69153;47.918;11.428;2023-08-06T12:44:14;94541.81;;;15.81;58.18
79686;BME280;69153;47.918;11.428;2023-08-06T12:46:40;94541.03;;;15.95;57.03
79686;BME280;69153;47.918;11.428;2023-08-06T12:49:05;94548.63;;;15.82;57.84
79686;BME280;69153;47.918;11.428;2023-08-06T12:51:31;94542.44;;;15.91;57.97
79686;BME280;69153;47.918;11.428;2023-08-06T12:53:59;94582.00;;;15.72;57.57
79686;BME280;69153;47.918;11.428;2023-08-06T12:56:24;94561.88;;;15.56;57.95